Mendota, Missouri
Current Conditions -  °F | °C
As of 8:30 PM on Saturday 20 Dec 2014 (Local Time) from KTVK Reporting Station
Overcast Overcast  
Wind Chill: 31°   Ceiling: 100
Heat Index: 36°   Visibility: 7mi
Dew Point: 36°   Wind: 6mph
Humidity: 100%   Direction: 160°SSE
Pressure: 30.15"   Gusts: NA
Location:  40.4961°N, 92.9907°W
Report Text: KTVK 210230Z AUTO 16005KT 7SM OVC001 02/02 A3015 RMK AO2
Loading
Personal Weather Stations






























Interactive Weather Map New forecast layout! Learn more

10-Day Weather Forecast

Advertisements
Track Severe Weather on mobile